Time;durP1;ratioP1;P1;durP2;ratioP2;P2;SDS_P1;SDS_P2;PMS_P1;PMS_P2;Temp;Humidity;BMP_temperature;BMP_pressure;BME280_temperature;BME280_humidity;BME280_pressure;Samples;Min_cycle;Max_cycle;Signal;HPM_P1;HPM_P2
2022/07/20 00:00:39;;;;;;;2.90;2.00;;;30.10;29.90;;;;;;5042698;28;20033;-67
2022/07/20 00:03:06;;;;;;;4.03;1.93;;;30.00;29.90;;;;;;5046506;28;20100;-67
2022/07/20 00:05:31;;;;;;;2.35;2.10;;;30.00;30.00;;;;;;5044522;28;20283;-67
2022/07/20 00:07:57;;;;;;;2.42;1.85;;;29.90;30.00;;;;;;5050273;28;20020;-67
2022/07/20 00:13:07;;;;;;;3.08;1.83;;;29.80;30.00;;;;;;5041534;28;20032;-67
2022/07/20 00:15:33;;;;;;;2.85;2.20;;;29.80;30.20;;;;;;5044627;28;20034;-66
2022/07/20 00:17:58;;;;;;;3.70;1.70;;;29.70;30.10;;;;;;5048465;28;20916;-66
2022/07/20 00:20:24;;;;;;;6.20;2.10;;;29.70;30.20;;;;;;5045623;28;20017;-66
2022/07/20 00:22:50;;;;;;;4.22;2.20;;;29.60;30.20;;;;;;5041565;28;20056;-68
2022/07/20 00:25:15;;;;;;;2.42;1.88;;;29.60;30.40;;;;;;5048604;28;20633;-67
2022/07/20 00:27:41;;;;;;;4.65;2.35;;;29.60;30.40;;;;;;5049020;28;20060;-67
2022/07/20 00:30:07;;;;;;;4.63;2.20;;;29.50;30.50;;;;;;5048909;28;20505;-68
2022/07/20 00:32:40;;;;;;;4.32;2.50;;;29.50;30.60;;;;;;5045837;28;20082;-67
2022/07/20 00:35:07;;;;;;;3.50;2.13;;;29.50;30.70;;;;;;5043945;28;20033;-67
2022/07/20 00:37:33;;;;;;;3.20;2.00;;;29.40;30.70;;;;;;5047554;28;20033;-67
2022/07/20 00:39:59;;;;;;;3.08;2.13;;;29.40;30.80;;;;;;5042560;28;20505;-67
2022/07/20 00:42:24;;;;;;;3.70;2.40;;;29.30;30.80;;;;;;5047303;28;20029;-67
2022/07/20 00:44:50;;;;;;;3.35;2.10;;;29.30;30.90;;;;;;5048901;28;20029;-67
2022/07/20 00:47:16;;;;;;;2.83;2.00;;;29.30;31.10;;;;;;5047919;28;20052;-68
2022/07/20 00:49:41;;;;;;;2.30;1.73;;;29.20;31.00;;;;;;5043118;28;20026;-67
2022/07/20 00:52:08;;;;;;;4.97;2.22;;;29.20;31.10;;;;;;5036461;28;20112;-67
2022/07/20 00:54:33;;;;;;;2.53;1.90;;;29.10;31.10;;;;;;5032304;28;20041;-68
2022/07/20 00:56:59;;;;;;;2.88;2.08;;;29.10;31.30;;;;;;5038944;28;20411;-66
2022/07/20 00:59:25;;;;;;;1.80;1.63;;;29.00;31.30;;;;;;5054246;28;20066;-66
2022/07/20 01:01:51;;;;;;;3.53;1.90;;;29.00;31.40;;;;;;5049688;28;20052;-66
2022/07/20 01:04:17;;;;;;;6.45;2.00;;;29.00;31.40;;;;;;5054464;28;20483;-66
2022/07/20 01:06:43;;;;;;;2.90;2.10;;;29.00;31.60;;;;;;5050564;28;20442;-66
2022/07/20 01:09:08;;;;;;;3.30;2.20;;;28.90;31.50;;;;;;5053230;28;20021;-65
2022/07/20 01:11:35;;;;;;;4.47;2.30;;;28.80;31.60;;;;;;5045902;28;20141;-65
2022/07/20 01:14:05;;;;;;;3.33;2.20;;;28.80;31.70;;;;;;5045578;28;20013;-65
2022/07/20 01:16:31;;;;;;;3.13;2.10;;;28.80;31.80;;;;;;5046621;28;20017;-66
2022/07/20 01:18:57;;;;;;;3.17;2.13;;;28.80;31.90;;;;;;5051602;28;20098;-66
2022/07/20 01:21:23;;;;;;;2.95;1.95;;;28.70;31.90;;;;;;5038259;28;20511;-66
2022/07/20 01:23:48;;;;;;;4.13;1.80;;;28.80;32.00;;;;;;5045572;28;20041;-66
2022/07/20 01:26:19;;;;;;;3.20;2.00;;;28.70;32.00;;;;;;5050137;28;20029;-66
2022/07/20 01:28:45;;;;;;;2.47;1.85;;;28.70;32.10;;;;;;5046622;28;20035;-66
2022/07/20 01:31:11;;;;;;;3.25;1.95;;;28.70;32.10;;;;;;5050593;28;20032;-66
2022/07/20 01:33:36;;;;;;;3.97;2.30;;;28.70;32.20;;;;;;5049021;28;20029;-67
2022/07/20 01:36:02;;;;;;;1.95;1.75;;;28.60;32.20;;;;;;5045455;28;20021;-67
2022/07/20 01:38:28;;;;;;;3.72;2.03;;;28.50;32.20;;;;;;5049266;28;20491;-65
2022/07/20 01:40:53;;;;;;;2.30;1.88;;;28.50;32.40;;;;;;5051088;28;20035;-66
2022/07/20 01:43:19;;;;;;;2.97;1.77;;;28.40;32.40;;;;;;5042251;28;20095;-66
2022/07/20 01:45:44;;;;;;;4.80;1.88;;;28.40;32.50;;;;;;5050257;28;20108;-67
2022/07/20 01:48:10;;;;;;;2.72;1.85;;;28.40;32.60;;;;;;5050675;28;20051;-68
2022/07/20 01:50:38;;;;;;;3.38;2.10;;;28.30;32.70;;;;;;5048227;28;20479;-68
2022/07/20 01:53:04;;;;;;;3.03;2.00;;;28.30;32.70;;;;;;5050618;28;20017;-68
2022/07/20 01:55:30;;;;;;;4.38;2.00;;;28.30;32.80;;;;;;5044227;28;20017;-68
2022/07/20 01:57:55;;;;;;;2.28;1.80;;;28.30;33.00;;;;;;5049852;28;20795;-68
2022/07/20 02:00:21;;;;;;;3.20;1.77;;;28.30;33.10;;;;;;5046551;28;20060;-68
2022/07/20 02:02:48;;;;;;;3.30;1.90;;;28.30;33.10;;;;;;5048761;28;20053;-68
2022/07/20 02:05:14;;;;;;;3.00;2.10;;;28.30;33.30;;;;;;5051306;28;20029;-68
2022/07/20 02:07:40;;;;;;;2.42;2.00;;;28.20;33.30;;;;;;5047715;28;20029;-68
2022/07/20 02:10:07;;;;;;;3.30;2.13;;;28.20;33.40;;;;;;5050975;28;20419;-68
2022/07/20 02:12:34;;;;;;;3.60;2.75;;;28.10;33.50;;;;;;5049450;28;20110;-68
2022/07/20 02:14:59;;;;;;;6.07;3.15;;;28.10;33.60;;;;;;5049723;28;20491;-68
2022/07/20 02:17:25;;;;;;;3.65;2.28;;;28.00;33.60;;;;;;5050620;28;20104;-68
2022/07/20 02:19:50;;;;;;;4.68;2.22;;;28.00;33.70;;;;;;5043171;28;20040;-68
2022/07/20 02:22:16;;;;;;;2.75;2.10;;;28.00;33.80;;;;;;5046969;28;20488;-68
2022/07/20 02:24:41;;;;;;;4.28;2.00;;;28.00;33.80;;;;;;5050685;28;20091;-68
2022/07/20 02:27:07;;;;;;;3.15;2.13;;;27.90;34.00;;;;;;5049398;28;20052;-68
2022/07/20 02:29:33;;;;;;;3.33;1.90;;;27.90;34.10;;;;;;5048544;28;20025;-67
2022/07/20 02:31:58;;;;;;;2.80;1.92;;;27.80;34.20;;;;;;5050332;28;20017;-67
2022/07/20 02:34:24;;;;;;;2.78;1.80;;;27.80;34.40;;;;;;5044429;28;20021;-67
2022/07/20 02:36:49;;;;;;;2.63;2.03;;;27.80;34.40;;;;;;5051255;28;20044;-67
2022/07/20 02:39:15;;;;;;;2.20;1.65;;;27.70;34.50;;;;;;5048765;28;20108;-66
2022/07/20 02:41:40;;;;;;;4.22;2.13;;;27.70;34.70;;;;;;5049730;28;20029;-67
2022/07/20 02:44:06;;;;;;;2.47;1.77;;;27.60;34.80;;;;;;5040063;28;20025;-67
2022/07/20 02:46:31;;;;;;;2.03;1.70;;;27.50;34.80;;;;;;5041607;28;20034;-66
2022/07/20 02:48:57;;;;;;;4.05;2.10;;;27.50;34.90;;;;;;5040856;28;20361;-65
2022/07/20 02:51:22;;;;;;;3.30;2.65;;;27.50;34.90;;;;;;5051719;28;20043;-66
2022/07/20 02:53:48;;;;;;;5.35;3.25;;;27.40;35.00;;;;;;5049741;28;20549;-66
2022/07/20 02:56:13;;;;;;;5.05;2.72;;;27.30;35.10;;;;;;5052730;28;20021;-66
2022/07/20 02:58:39;;;;;;;3.85;2.22;;;27.30;35.40;;;;;;5048884;28;20044;-66
2022/07/20 03:01:04;;;;;;;3.72;2.38;;;27.20;35.50;;;;;;5049235;28;20044;-66
2022/07/20 03:03:30;;;;;;;3.00;2.00;;;27.20;35.70;;;;;;5046860;28;20039;-66
2022/07/20 03:05:55;;;;;;;3.08;1.98;;;27.20;35.70;;;;;;5051724;28;20025;-67
2022/07/20 03:08:21;;;;;;;5.45;2.28;;;27.10;35.70;;;;;;5045032;28;20022;-68
2022/07/20 03:10:47;;;;;;;3.38;2.17;;;27.10;35.70;;;;;;5049356;28;20033;-68
2022/07/20 03:13:12;;;;;;;5.57;2.10;;;27.10;35.70;;;;;;5044061;28;20029;-68
2022/07/20 03:15:38;;;;;;;2.65;2.08;;;27.10;35.70;;;;;;5049562;28;20025;-67
2022/07/20 03:18:03;;;;;;;3.95;1.92;;;27.10;35.80;;;;;;5048327;28;20676;-68
2022/07/20 03:20:32;;;;;;;2.63;2.00;;;27.00;35.80;;;;;;5046216;28;20075;-67
2022/07/20 03:22:59;;;;;;;2.75;1.80;;;27.00;35.90;;;;;;5042474;28;20072;-66
2022/07/20 03:25:25;;;;;;;3.60;2.00;;;27.00;35.90;;;;;;5045791;28;20029;-67
2022/07/20 03:27:55;;;;;;;3.42;1.95;;;27.00;35.90;;;;;;5047883;28;20388;-68
2022/07/20 03:30:22;;;;;;;7.30;2.60;;;27.00;35.90;;;;;;5048575;28;20025;-67
2022/07/20 03:32:47;;;;;;;3.42;2.35;;;27.00;35.90;;;;;;5048805;28;20491;-68
2022/07/20 03:35:13;;;;;;;3.72;2.25;;;26.90;35.90;;;;;;5047129;28;20035;-67
2022/07/20 03:37:39;;;;;;;3.55;2.60;;;26.90;35.90;;;;;;5049490;28;20095;-67
2022/07/20 03:40:05;;;;;;;3.42;2.70;;;26.90;36.30;;;;;;5047863;28;20108;-67
2022/07/20 03:42:31;;;;;;;7.03;2.60;;;26.70;36.40;;;;;;5046365;28;20036;-68
2022/07/20 03:44:57;;;;;;;5.03;2.65;;;26.70;36.70;;;;;;5040343;28;20025;-67
2022/07/20 03:47:23;;;;;;;3.40;2.58;;;26.60;36.90;;;;;;5043502;28;20035;-67
2022/07/20 03:49:50;;;;;;;4.20;2.47;;;26.60;37.10;;;;;;5047510;28;20052;-67
2022/07/20 03:52:16;;;;;;;5.80;2.90;;;26.50;37.00;;;;;;5042464;28;20017;-67
2022/07/20 03:54:42;;;;;;;5.53;2.58;;;26.40;37.30;;;;;;5048750;28;20049;-67
2022/07/20 03:57:08;;;;;;;5.40;2.85;;;26.40;37.40;;;;;;5049378;28;20056;-67
2022/07/20 03:59:33;;;;;;;4.82;2.70;;;26.40;37.60;;;;;;5047245;28;20029;-66
2022/07/20 04:01:59;;;;;;;4.28;2.63;;;26.30;37.70;;;;;;5044474;28;20085;-67
2022/07/20 04:04:25;;;;;;;3.47;2.70;;;26.30;37.80;;;;;;5049197;28;20041;-66
2022/07/20 04:06:50;;;;;;;4.47;2.90;;;26.30;38.10;;;;;;5047494;28;20059;-67
2022/07/20 04:09:43;;;;;;;4.78;2.65;;;26.20;38.30;;;;;;5041114;28;20103;-67
2022/07/20 04:12:03;;;;;;;4.63;2.75;;;26.20;38.50;;;;;;5044505;28;20181;-66
2022/07/20 04:14:28;;;;;;;4.72;2.63;;;26.20;38.60;;;;;;5043640;28;20026;-66
2022/07/20 04:16:54;;;;;;;4.13;2.40;;;26.20;38.60;;;;;;5044665;28;20021;-67
2022/07/20 04:19:19;;;;;;;4.05;2.58;;;26.20;38.80;;;;;;5047576;28;20025;-67
2022/07/20 04:21:46;;;;;;;5.82;3.20;;;26.10;39.00;;;;;;5044359;28;20045;-67
2022/07/20 04:24:11;;;;;;;4.60;3.13;;;26.10;39.50;;;;;;5047513;28;20819;-67
2022/07/20 04:26:37;;;;;;;4.88;3.05;;;26.00;39.70;;;;;;5046202;28;20033;-67
2022/07/20 04:29:02;;;;;;;6.22;4.03;;;26.00;40.00;;;;;;5048379;28;20025;-67
2022/07/20 04:31:28;;;;;;;6.00;2.72;;;25.90;40.40;;;;;;5049089;28;20040;-67
2022/07/20 04:33:53;;;;;;;4.75;3.42;;;25.90;41.20;;;;;;5050913;28;20025;-67
2022/07/20 04:36:19;;;;;;;5.82;3.33;;;25.90;40.90;;;;;;5049184;28;20025;-67
2022/07/20 04:38:44;;;;;;;4.97;3.05;;;25.90;41.00;;;;;;5048290;28;20516;-67
2022/07/20 04:41:10;;;;;;;4.85;3.10;;;25.80;41.00;;;;;;5051883;28;20025;-67
2022/07/20 04:43:35;;;;;;;5.20;3.10;;;25.80;41.90;;;;;;5045730;28;20030;-67
2022/07/20 04:46:01;;;;;;;7.13;4.38;;;25.80;41.50;;;;;;5047553;28;20021;-68
2022/07/20 04:48:26;;;;;;;7.70;4.68;;;25.70;42.10;;;;;;5052856;28;20072;-68
2022/07/20 04:50:52;;;;;;;8.18;4.30;;;25.70;43.00;;;;;;5051316;28;20497;-67
2022/07/20 04:53:17;;;;;;;8.43;6.00;;;25.60;43.30;;;;;;5051416;28;20021;-67
2022/07/20 04:55:43;;;;;;;9.35;5.93;;;25.50;44.40;;;;;;5045205;28;20024;-68
2022/07/20 04:58:08;;;;;;;8.60;6.40;;;25.50;45.20;;;;;;5052130;28;20017;-67
2022/07/20 05:00:34;;;;;;;8.93;5.63;;;25.50;46.30;;;;;;5047296;28;20070;-66
2022/07/20 05:02:59;;;;;;;7.88;6.32;;;25.50;46.30;;;;;;5050548;28;20048;-66
2022/07/20 05:05:25;;;;;;;9.57;7.57;;;25.50;46.90;;;;;;5052577;28;20414;-65
2022/07/20 05:07:50;;;;;;;7.95;6.63;;;25.50;47.40;;;;;;5053435;28;20391;-66
2022/07/20 05:10:16;;;;;;;11.15;7.20;;;25.60;48.10;;;;;;5044663;28;20052;-66
2022/07/20 05:12:41;;;;;;;14.98;8.45;;;26.10;48.00;;;;;;5047206;28;20029;-66
2022/07/20 05:15:08;;;;;;;13.15;8.32;;;26.60;47.50;;;;;;5043544;28;20018;-67
2022/07/20 05:17:33;;;;;;;9.55;7.40;;;27.20;46.80;;;;;;5048640;28;20415;-66
2022/07/20 05:19:59;;;;;;;11.05;8.50;;;27.70;46.10;;;;;;5045922;28;20028;-67
2022/07/20 05:22:24;;;;;;;10.65;7.63;;;28.10;45.70;;;;;;5045455;28;20125;-67
2022/07/20 05:24:50;;;;;;;13.85;9.98;;;28.60;45.20;;;;;;5050152;28;20052;-67
2022/07/20 05:27:15;;;;;;;14.65;10.57;;;28.90;45.30;;;;;;5048229;28;20029;-66
2022/07/20 05:29:41;;;;;;;13.27;10.32;;;29.00;45.30;;;;;;5049211;28;20029;-67
2022/07/20 05:32:08;;;;;;;12.10;8.57;;;29.30;45.10;;;;;;5043950;28;20458;-67
2022/07/20 05:34:33;;;;;;;15.13;10.65;;;29.60;44.70;;;;;;5044512;28;20120;-67
2022/07/20 05:36:59;;;;;;;14.77;11.70;;;29.70;44.90;;;;;;5046701;28;20187;-67
2022/07/20 05:39:24;;;;;;;14.30;10.45;;;29.90;44.80;;;;;;5049568;28;20025;-67
2022/07/20 05:41:50;;;;;;;16.13;11.15;;;30.00;44.50;;;;;;5046796;28;20095;-66
2022/07/20 05:44:15;;;;;;;18.10;13.00;;;30.20;44.70;;;;;;5046903;28;20063;-66
2022/07/20 05:46:41;;;;;;;15.93;11.55;;;30.20;44.90;;;;;;5045172;28;20033;-66
2022/07/20 05:49:07;;;;;;;15.05;10.88;;;30.30;44.80;;;;;;5045162;28;20025;-67
2022/07/20 05:51:34;;;;;;;13.25;11.05;;;30.40;44.60;;;;;;5047663;28;20079;-66
2022/07/20 05:53:59;;;;;;;17.80;12.45;;;30.80;44.50;;;;;;5050832;28;20009;-67
2022/07/20 05:56:25;;;;;;;13.80;10.48;;;31.00;44.30;;;;;;5043968;28;20039;-67
2022/07/20 05:58:50;;;;;;;14.13;11.55;;;31.20;44.00;;;;;;5048036;28;20445;-67
2022/07/20 06:01:16;;;;;;;14.00;11.55;;;31.40;43.70;;;;;;5045134;28;20080;-67
2022/07/20 06:03:42;;;;;;;15.75;11.68;;;31.80;43.40;;;;;;5046432;28;20025;-67
2022/07/20 06:06:08;;;;;;;13.95;11.05;;;32.20;43.10;;;;;;5048365;28;20391;-67
2022/07/20 06:08:34;;;;;;;15.07;11.73;;;32.40;42.70;;;;;;5045302;28;20040;-67
2022/07/20 06:11:00;;;;;;;16.15;12.07;;;32.30;42.90;;;;;;5047694;28;20545;-67
2022/07/20 06:13:25;;;;;;;13.45;11.38;;;32.40;42.80;;;;;;5042915;28;20022;-67
2022/07/20 06:15:51;;;;;;;15.80;11.95;;;32.50;42.70;;;;;;5048914;28;20021;-67
2022/07/20 06:18:16;;;;;;;14.95;12.15;;;32.60;42.80;;;;;;5045140;28;20071;-67
2022/07/20 06:20:42;;;;;;;16.63;13.00;;;32.70;42.70;;;;;;5046146;28;20017;-65
2022/07/20 06:23:07;;;;;;;15.75;12.50;;;32.80;42.80;;;;;;5048591;28;20036;-66
2022/07/20 06:25:33;;;;;;;18.05;13.98;;;32.70;43.00;;;;;;5049375;28;20021;-66
2022/07/20 06:28:00;;;;;;;16.00;12.95;;;32.60;43.20;;;;;;5045878;28;20021;-66
2022/07/20 06:30:26;;;;;;;14.80;11.65;;;32.50;43.40;;;;;;5048387;28;20021;-67
2022/07/20 06:32:52;;;;;;;14.95;11.52;;;32.50;43.50;;;;;;5045494;28;20028;-67
2022/07/20 06:35:17;;;;;;;20.70;14.40;;;32.50;43.70;;;;;;5049691;28;20025;-67
2022/07/20 06:37:43;;;;;;;19.05;14.63;;;32.30;44.20;;;;;;5046344;28;20021;-67
2022/07/20 06:40:09;;;;;;;15.55;13.35;;;31.90;44.90;;;;;;5044846;28;20039;-67
2022/07/20 06:42:35;;;;;;;18.92;15.05;;;31.40;45.50;;;;;;5043089;28;20082;-67
2022/07/20 06:45:01;;;;;;;17.77;14.93;;;31.00;46.00;;;;;;5048108;28;20104;-67
2022/07/20 06:47:26;;;;;;;19.13;13.98;;;30.80;46.60;;;;;;5046337;28;20036;-67
2022/07/20 06:49:52;;;;;;;17.05;13.73;;;30.40;47.20;;;;;;5044399;28;20033;-67
2022/07/20 06:52:17;;;;;;;15.55;12.85;;;30.30;47.60;;;;;;5048336;28;20036;-67
2022/07/20 06:54:43;;;;;;;18.52;14.55;;;30.30;47.70;;;;;;5047021;28;20096;-67
2022/07/20 06:57:08;;;;;;;18.38;14.40;;;30.10;47.90;;;;;;5046983;28;20021;-66
2022/07/20 06:59:37;;;;;;;18.38;15.25;;;30.10;48.00;;;;;;5045406;28;20032;-67
2022/07/20 07:02:03;;;;;;;17.83;14.65;;;30.10;48.10;;;;;;5043948;28;20562;-67
2022/07/20 07:04:28;;;;;;;17.02;13.68;;;30.20;47.90;;;;;;5049787;28;20140;-66
2022/07/20 07:06:54;;;;;;;20.75;15.05;;;30.10;47.90;;;;;;5042204;28;20051;-67
2022/07/20 07:09:19;;;;;;;14.70;12.32;;;30.20;48.00;;;;;;5040008;28;20053;-66
2022/07/20 07:11:45;;;;;;;17.63;14.25;;;30.20;47.80;;;;;;5047499;28;20025;-66
2022/07/20 07:14:10;;;;;;;16.70;14.05;;;30.00;47.80;;;;;;5043002;28;20645;-66
2022/07/20 07:16:36;;;;;;;19.92;13.65;;;29.90;47.80;;;;;;5046041;28;20454;-67
2022/07/20 07:19:02;;;;;;;16.92;14.40;;;29.80;48.00;;;;;;5047627;28;20090;-66
2022/07/20 07:21:27;;;;;;;14.98;12.40;;;29.70;48.30;;;;;;5048812;28;20032;-66
2022/07/20 07:23:53;;;;;;;16.70;13.10;;;29.80;48.30;;;;;;5046387;28;20510;-66
2022/07/20 07:26:20;;;;;;;17.63;13.52;;;29.90;48.10;;;;;;5049867;28;20071;-65
2022/07/20 07:28:46;;;;;;;16.10;13.43;;;29.90;47.80;;;;;;5046004;28;20029;-66
2022/07/20 07:31:11;;;;;;;14.50;11.57;;;29.80;47.80;;;;;;5046585;28;20479;-65
2022/07/20 07:33:37;;;;;;;14.43;11.93;;;29.60;47.70;;;;;;5046781;28;20052;-67
2022/07/20 07:36:04;;;;;;;15.95;13.10;;;29.50;48.00;;;;;;5045201;28;20033;-67
2022/07/20 07:38:30;;;;;;;13.90;11.38;;;29.50;48.10;;;;;;5042892;28;20029;-68
2022/07/20 07:40:56;;;;;;;16.15;12.25;;;29.60;47.90;;;;;;5043966;28;20028;-65
2022/07/20 07:43:21;;;;;;;14.35;10.77;;;29.80;47.90;;;;;;5046653;28;20028;-67
2022/07/20 07:45:47;;;;;;;16.05;12.70;;;29.90;47.60;;;;;;5047527;28;20415;-67
2022/07/20 07:48:12;;;;;;;15.45;11.98;;;30.00;47.30;;;;;;5045960;28;20055;-67
2022/07/20 07:50:39;;;;;;;14.82;11.48;;;30.00;47.00;;;;;;5046674;28;20396;-67
2022/07/20 07:53:07;;;;;;;14.63;11.70;;;29.90;47.30;;;;;;5044261;28;20025;-67
2022/07/20 07:55:34;;;;;;;18.25;11.43;;;30.10;47.00;;;;;;5043454;28;20021;-67
2022/07/20 07:57:59;;;;;;;14.77;11.48;;;30.10;46.30;;;;;;5049477;28;20017;-67
2022/07/20 08:00:25;;;;;;;11.55;10.10;;;30.00;45.80;;;;;;5033566;28;20026;-66
2022/07/20 08:02:50;;;;;;;12.18;9.45;;;29.90;45.50;;;;;;5036502;28;20462;-67
2022/07/20 08:05:16;;;;;;;12.98;9.45;;;30.00;45.20;;;;;;5047253;28;20029;-68
2022/07/20 08:07:42;;;;;;;12.57;10.07;;;30.10;45.20;;;;;;5044087;28;20033;-67
2022/07/20 08:10:08;;;;;;;13.52;9.88;;;30.20;45.40;;;;;;5042691;28;20037;-67
2022/07/20 08:12:36;;;;;;;14.43;9.50;;;30.30;45.90;;;;;;5044700;28;20566;-67
2022/07/20 08:15:02;;;;;;;10.27;8.02;;;30.40;46.10;;;;;;5045901;28;20025;-67
2022/07/20 08:17:27;;;;;;;11.05;8.07;;;30.60;45.90;;;;;;5046689;28;20028;-67
2022/07/20 08:19:53;;;;;;;16.55;9.35;;;30.70;45.80;;;;;;5044592;28;20083;-66
2022/07/20 08:22:19;;;;;;;9.20;7.50;;;30.70;45.50;;;;;;5039685;28;20029;-67
2022/07/20 08:24:44;;;;;;;12.55;9.38;;;30.90;45.10;;;;;;5043541;28;20086;-68
2022/07/20 08:27:10;;;;;;;12.23;8.48;;;30.80;44.40;;;;;;5044678;28;20025;-68
2022/07/20 08:29:36;;;;;;;10.48;7.68;;;30.70;44.40;;;;;;5041711;28;20056;-68
2022/07/20 08:32:01;;;;;;;11.75;8.18;;;30.70;44.30;;;;;;5045469;28;20159;-67
2022/07/20 08:34:27;;;;;;;11.07;8.18;;;30.80;44.30;;;;;;5037148;28;20510;-67
2022/07/20 08:36:53;;;;;;;12.48;7.68;;;30.90;43.90;;;;;;5043092;28;20104;-67
2022/07/20 08:39:19;;;;;;;9.65;7.75;;;30.90;44.40;;;;;;5047436;28;20066;-68
2022/07/20 08:41:45;;;;;;;8.63;6.80;;;30.70;43.70;;;;;;5044079;28;20165;-68
2022/07/20 08:44:11;;;;;;;10.10;7.10;;;30.50;43.90;;;;;;5034387;28;20032;-67
2022/07/20 08:46:37;;;;;;;9.95;7.20;;;30.50;44.00;;;;;;5039719;28;20029;-67
2022/07/20 08:49:03;;;;;;;9.90;7.10;;;30.40;43.70;;;;;;5042083;28;20029;-66
2022/07/20 08:51:30;;;;;;;10.65;7.70;;;30.30;43.80;;;;;;5043454;28;20106;-66
2022/07/20 08:53:56;;;;;;;12.18;7.82;;;30.30;43.80;;;;;;5040985;28;20028;-66
2022/07/20 08:56:22;;;;;;;10.68;7.93;;;30.20;43.90;;;;;;5043130;28;20399;-66
2022/07/20 08:58:48;;;;;;;9.85;7.60;;;30.30;44.00;;;;;;5036884;28;20060;-66
2022/07/20 09:01:16;;;;;;;10.27;7.95;;;30.30;43.80;;;;;;5039396;28;20098;-66
2022/07/20 09:03:44;;;;;;;10.57;7.35;;;30.40;43.70;;;;;;5040633;28;20025;-66
2022/07/20 09:06:11;;;;;;;9.90;7.00;;;30.30;43.60;;;;;;5039671;28;20036;-66
2022/07/20 09:08:57;;;;;;;9.95;6.97;;;30.40;43.60;;;;;;5039984;28;20025;-66
2022/07/20 09:11:24;;;;;;;7.22;5.80;;;30.40;43.70;;;;;;5041237;28;20523;-67
2022/07/20 09:13:50;;;;;;;7.93;5.90;;;30.60;43.50;;;;;;5039320;28;20032;-67
2022/07/20 09:16:29;;;;;;;9.52;6.15;;;30.70;43.30;;;;;;5042046;28;20021;-67
2022/07/20 09:18:55;;;;;;;10.50;6.38;;;30.80;43.10;;;;;;5042665;28;20029;-67
2022/07/20 09:21:29;;;;;;;10.07;6.00;;;30.90;43.00;;;;;;5042925;28;20040;-67
2022/07/20 09:23:56;;;;;;;9.43;6.13;;;31.10;42.90;;;;;;5042021;28;20025;-67
2022/07/20 09:26:23;;;;;;;8.32;5.93;;;31.20;42.70;;;;;;5043242;28;20053;-67
2022/07/20 09:28:51;;;;;;;8.35;5.78;;;31.20;42.40;;;;;;5046531;28;20506;-67
2022/07/20 09:31:28;;;;;;;8.25;5.30;;;31.20;42.30;;;;;;5046317;28;20051;-67
2022/07/20 09:33:59;;;;;;;8.73;5.88;;;31.30;42.00;;;;;;5045891;28;20108;-67
2022/07/20 09:36:31;;;;;;;6.60;4.88;;;31.30;41.70;;;;;;5044832;28;20099;-67
2022/07/20 09:39:09;;;;;;;;;;;31.50;41.80;;;;;;5048464;28;20056;-67
2022/07/20 09:41:36;;;;;;;6.15;5.28;;;31.50;41.80;;;;;;5045258;28;19909;-67
2022/07/20 09:44:05;;;;;;;9.23;5.75;;;31.60;41.30;;;;;;5048358;28;20105;-67
2022/07/20 09:46:33;;;;;;;9.00;6.03;;;31.70;41.10;;;;;;5045522;28;20103;-67
2022/07/20 09:49:02;;;;;;;6.82;5.70;;;31.90;40.80;;;;;;5048021;28;20103;-67
2022/07/20 09:51:38;;;;;;;8.88;6.18;;;31.70;40.30;;;;;;5044136;28;20708;-68
2022/07/20 09:54:07;;;;;;;7.35;5.40;;;31.60;40.30;;;;;;5049252;28;20104;-67
2022/07/20 09:56:35;;;;;;;6.63;5.28;;;31.60;40.30;;;;;;5044338;28;20021;-64
2022/07/20 09:59:04;;;;;;;6.28;5.00;;;31.50;40.30;;;;;;5047120;28;20391;-65
2022/07/20 10:01:32;;;;;;;5.75;4.50;;;31.50;40.30;;;;;;5044440;28;20098;-66
2022/07/20 10:04:00;;;;;;;5.90;4.50;;;31.50;40.40;;;;;;5049327;28;20458;-66
2022/07/20 10:06:27;;;;;;;6.22;4.78;;;31.60;40.30;;;;;;5041337;28;20042;-66
2022/07/20 10:08:53;;;;;;;7.43;5.13;;;31.50;40.50;;;;;;5043498;28;20078;-66
2022/07/20 10:11:22;;;;;;;8.40;5.13;;;31.50;40.80;;;;;;5042867;28;20025;-66
2022/07/20 10:13:49;;;;;;;6.97;4.97;;;31.60;41.00;;;;;;5048035;28;20029;-66
2022/07/20 10:16:32;;;;;;;6.32;4.78;;;31.70;41.10;;;;;;5045328;28;20022;-67
2022/07/20 10:18:58;;;;;;;5.53;4.80;;;31.90;41.20;;;;;;5041514;28;20411;-67
2022/07/20 10:21:36;;;;;;;7.88;5.55;;;32.00;41.10;;;;;;5045917;28;20038;-67
2022/07/20 10:24:17;;;;;;;6.85;5.28;;;32.10;41.20;;;;;;5044508;28;20029;-67
2022/07/20 10:26:47;;;;;;;6.47;5.00;;;32.10;41.00;;;;;;5040443;28;20114;-66
2022/07/20 10:29:34;;;;;;;7.13;5.45;;;32.20;40.90;;;;;;5040646;28;20104;-66
2022/07/20 10:32:20;;;;;;;6.80;5.15;;;32.10;40.60;;;;;;5040315;28;20032;-66
2022/07/20 10:34:52;;;;;;;8.52;5.45;;;32.00;40.50;;;;;;5037843;28;20032;-66
2022/07/20 10:37:40;;;;;;;7.35;4.80;;;32.00;40.60;;;;;;5040251;28;20432;-65
2022/07/20 10:40:08;;;;;;;7.75;5.30;;;32.00;40.50;;;;;;5040211;28;20353;-66
2022/07/20 10:42:47;;;;;;;7.90;4.93;;;32.00;40.20;;;;;;5038408;28;20123;-66
2022/07/20 10:45:27;;;;;;;6.10;3.97;;;32.00;40.10;;;;;;5039459;28;20048;-66
2022/07/20 10:47:55;;;;;;;6.82;5.30;;;32.10;40.20;;;;;;5043063;28;20032;-66
2022/07/20 10:50:27;;;;;;;9.02;5.10;;;32.10;40.50;;;;;;5043057;28;20039;-66
2022/07/20 10:53:20;;;;;;;6.15;4.40;;;32.10;40.80;;;;;;5036641;28;20025;-67
2022/07/20 10:55:55;;;;;;;6.78;4.90;;;32.40;40.90;;;;;;5039548;28;20072;-67
2022/07/20 10:58:31;;;;;;;8.43;5.40;;;32.50;40.70;;;;;;5042838;28;20021;-67
2022/07/20 11:01:02;;;;;;;6.75;4.55;;;32.50;40.50;;;;;;5047470;28;20053;-66
2022/07/20 11:03:37;;;;;;;9.57;5.00;;;32.60;40.50;;;;;;5038868;28;20399;-67
2022/07/20 11:06:05;;;;;;;7.97;5.13;;;32.60;40.60;;;;;;5040340;28;20484;-67
2022/07/20 11:08:30;;;;;;;5.25;4.35;;;32.60;40.40;;;;;;5042201;28;20510;-67
2022/07/20 11:10:56;;;;;;;6.28;4.80;;;32.60;40.30;;;;;;5045006;28;20029;-67
2022/07/20 11:13:22;;;;;;;5.90;4.57;;;32.70;40.20;;;;;;5040526;28;20021;-67
2022/07/20 11:15:52;;;;;;;6.60;4.97;;;32.70;40.10;;;;;;5038629;28;20064;-67
2022/07/20 11:18:23;;;;;;;7.47;4.72;;;32.80;40.10;;;;;;5039666;28;20077;-67
2022/07/20 11:20:55;;;;;;;8.23;5.47;;;32.90;40.10;;;;;;5043729;28;20029;-68
2022/07/20 11:23:22;;;;;;;6.03;4.57;;;32.80;40.00;;;;;;5046018;28;20053;-67
2022/07/20 11:25:52;;;;;;;6.85;4.85;;;32.70;40.10;;;;;;5041446;28;20087;-67
2022/07/20 11:28:24;;;;;;;6.75;4.75;;;32.70;39.90;;;;;;5040761;28;20037;-66
2022/07/20 11:30:51;;;;;;;6.60;4.85;;;32.70;40.00;;;;;;5042758;28;20120;-67
2022/07/20 11:33:35;;;;;;;4.85;4.32;;;32.70;39.70;;;;;;5035391;28;20033;-66
2022/07/20 11:36:06;;;;;;;4.72;4.03;;;32.80;39.60;;;;;;5041558;28;20036;-66
2022/07/20 11:38:45;;;;;;;;;;;32.90;39.50;;;;;;5036887;28;20028;-67
2022/07/20 11:41:17;;;;;;;6.63;4.22;;;33.00;39.20;;;;;;5036809;28;19916;-66
2022/07/20 11:43:43;;;;;;;7.18;4.88;;;33.00;39.10;;;;;;5040730;28;20052;-67
2022/07/20 11:46:14;;;;;;;5.38;3.97;;;33.20;39.00;;;;;;5045884;28;20040;-67
2022/07/20 11:48:44;;;;;;;5.97;4.32;;;33.10;38.90;;;;;;5041410;28;20033;-66
2022/07/20 11:51:11;;;;;;;7.00;4.40;;;33.20;38.80;;;;;;5045452;28;20017;-67
2022/07/20 11:53:41;;;;;;;6.47;4.35;;;33.30;38.90;;;;;;5039933;28;20032;-67
2022/07/20 11:56:16;;;;;;;4.90;4.10;;;33.40;38.70;;;;;;5037982;28;20021;-67
2022/07/20 11:58:43;;;;;;;5.22;4.15;;;33.40;38.60;;;;;;5040015;28;20029;-66
2022/07/20 12:01:12;;;;;;;5.28;3.95;;;33.30;38.50;;;;;;5043636;28;20108;-67
2022/07/20 12:03:46;;;;;;;4.95;3.60;;;33.50;38.40;;;;;;5036716;28;20769;-66
2022/07/20 12:06:13;;;;;;;7.40;4.75;;;33.70;38.10;;;;;;5040691;28;20495;-66
2022/07/20 12:08:40;;;;;;;8.48;4.50;;;33.80;37.40;;;;;;5037684;28;20036;-66
2022/07/20 12:11:07;;;;;;;7.60;4.60;;;33.60;37.60;;;;;;5036465;28;20106;-66
2022/07/20 12:13:48;;;;;;;4.65;3.88;;;33.60;37.60;;;;;;5037983;28;20663;-65
2022/07/20 12:16:14;;;;;;;5.37;3.67;;;33.50;37.60;;;;;;5039757;28;20029;-67
2022/07/20 12:18:42;;;;;;;4.47;3.40;;;33.60;37.60;;;;;;5037027;28;20040;-66
2022/07/20 12:21:14;;;;;;;4.18;3.60;;;33.80;37.50;;;;;;5035602;28;20514;-66
2022/07/20 12:23:42;;;;;;;5.03;3.63;;;34.00;37.30;;;;;;5041408;28;20123;-66
2022/07/20 12:26:25;;;;;;;5.97;4.13;;;34.00;37.00;;;;;;5036231;28;20542;-66
2022/07/20 12:28:51;;;;;;;4.85;3.72;;;34.00;36.70;;;;;;5043014;28;20159;-67
2022/07/20 12:31:22;;;;;;;5.68;3.20;;;34.10;36.80;;;;;;5040632;28;20033;-65
2022/07/20 12:34:06;;;;;;;6.80;4.00;;;34.30;36.70;;;;;;5042102;28;20603;-65
2022/07/20 12:36:39;;;;;;;4.63;3.83;;;34.40;36.40;;;;;;5040468;28;20037;-65
2022/07/20 12:39:34;;;;;;;5.65;3.92;;;34.70;36.00;;;;;;5035430;28;20499;-65
2022/07/20 12:42:09;;;;;;;5.63;3.42;;;34.60;35.70;;;;;;5037334;28;20098;-65
2022/07/20 12:44:35;;;;;;;4.35;3.53;;;34.50;36.30;;;;;;5039061;28;20032;-67
2022/07/20 12:47:01;;;;;;;4.60;3.67;;;34.50;35.80;;;;;;5038464;28;20029;-66